createdAt,value
2023-02-11T00:02:00.291Z,102490.23
2023-02-11T00:04:30.236Z,102477.08
2023-02-11T00:06:58.148Z,102471.96
2023-02-11T00:09:26.601Z,102472.20
2023-02-11T00:11:54.997Z,102463.77
2023-02-11T00:14:23.498Z,102476.20
2023-02-11T00:16:51.898Z,102474.32
2023-02-11T00:19:20.372Z,102482.83
2023-02-11T00:21:48.707Z,102485.34
2023-02-11T00:24:17.086Z,102489.19
2023-02-11T00:26:45.479Z,102499.48
2023-02-11T00:29:13.996Z,102497.24
2023-02-11T00:31:42.449Z,102506.07
2023-02-11T00:34:10.798Z,102503.85
2023-02-11T00:36:39.263Z,102503.43
2023-02-11T00:39:08.658Z,102494.77
2023-02-11T00:41:36.507Z,102483.35
2023-02-11T00:44:04.948Z,102482.12
2023-02-11T00:46:33.136Z,102472.64
2023-02-11T00:49:01.469Z,102469.09
2023-02-11T00:51:29.932Z,102470.20
2023-02-11T00:53:58.404Z,102478.58
2023-02-11T00:56:26.989Z,102490.29
2023-02-11T00:58:55.515Z,102500.08
2023-02-11T01:01:24.759Z,102501.16
2023-02-11T01:03:52.396Z,102501.46
2023-02-11T01:06:21.131Z,102496.67
2023-02-11T01:08:49.191Z,102487.17
2023-02-11T01:11:21.320Z,102477.73
2023-02-11T01:13:50.839Z,102475.70
2023-02-11T01:16:21.355Z,102472.92
2023-02-11T01:18:50.503Z,102464.98
2023-02-11T01:21:20.576Z,102459.02
2023-02-11T01:23:50.397Z,102453.02
2023-02-11T01:26:20.021Z,102448.96
2023-02-11T01:28:49.598Z,102437.33
2023-02-11T01:31:19.418Z,102425.58
2023-02-11T01:33:49.281Z,102420.38
2023-02-11T01:36:19.091Z,102419.27
2023-02-11T01:38:49.978Z,102416.20
2023-02-11T01:41:17.648Z,102419.96
2023-02-11T01:43:49.646Z,102417.21
2023-02-11T01:46:37.319Z,102422.02
2023-02-11T01:49:17.303Z,102414.13
2023-02-11T01:51:50.503Z,102407.11
2023-02-11T01:54:45.209Z,102399.81
2023-02-11T01:57:22.475Z,102401.72
2023-02-11T02:00:10.812Z,102395.36
2023-02-11T02:03:05.169Z,102387.57
2023-02-11T02:06:07.907Z,102382.44
2023-02-11T02:09:11.169Z,102380.08
2023-02-11T02:11:41.040Z,102375.66
2023-02-11T02:14:11.119Z,102375.48
2023-02-11T02:16:41.097Z,102378.32
2023-02-11T02:19:54.284Z,102382.65
2023-02-11T02:23:09.284Z,102377.90
2023-02-11T02:26:25.933Z,102366.77
2023-02-11T02:29:11.712Z,102362.06
2023-02-11T02:32:30.265Z,102370.15
2023-02-11T02:35:32.062Z,102366.48
2023-02-11T02:38:15.619Z,102363.05
2023-02-11T02:40:51.840Z,102359.88
2023-02-11T02:43:25.775Z,102357.77
2023-02-11T02:45:55.897Z,102360.73
2023-02-11T02:48:31.711Z,102359.11
2023-02-11T02:52:07.194Z,102349.05
2023-02-11T02:55:33.068Z,102342.59
2023-02-11T02:58:17.025Z,102331.23
2023-02-11T03:02:07.251Z,102338.42
2023-02-11T03:04:48.628Z,102346.55
2023-02-11T03:07:39.326Z,102337.05
2023-02-11T03:10:22.530Z,102328.95
2023-02-11T03:12:52.820Z,102323.42
2023-02-11T03:15:23.770Z,102320.64
2023-02-11T03:17:56.940Z,102320.07
2023-02-11T03:20:33.137Z,102314.95
2023-02-11T03:23:42.776Z,102306.33
2023-02-11T03:26:28.530Z,102308.29
2023-02-11T03:29:26.019Z,102312.80
2023-02-11T03:32:20.058Z,102319.30
2023-02-11T03:35:21.541Z,102317.67
2023-02-11T03:37:57.705Z,102319.14
2023-02-11T03:40:35.321Z,102326.17
2023-02-11T03:43:28.973Z,102327.44
2023-02-11T03:46:00.961Z,102333.16
2023-02-11T03:48:40.391Z,102332.75
2023-02-11T03:51:13.160Z,102320.68
2023-02-11T03:53:46.726Z,102319.33
2023-02-11T03:56:23.151Z,102322.37
2023-02-11T03:58:53.042Z,102317.52
2023-02-11T04:01:23.293Z,102323.95
2023-02-11T04:03:53.209Z,102325.59
2023-02-11T04:06:23.261Z,102326.65
2023-02-11T04:08:53.248Z,102322.23
2023-02-11T04:11:23.003Z,102314.83
2023-02-11T04:13:52.882Z,102312.98
2023-02-11T04:16:22.833Z,102318.80
2023-02-11T04:18:52.887Z,102311.90
2023-02-11T04:21:23.125Z,102315.30
2023-02-11T04:23:52.917Z,102322.23
2023-02-11T04:26:22.681Z,102328.11
2023-02-11T04:28:52.541Z,102323.73
2023-02-11T04:31:20.956Z,102318.27
2023-02-11T04:33:49.300Z,102324.10
2023-02-11T04:36:17.807Z,102321.11
2023-02-11T04:38:46.215Z,102313.00
2023-02-11T04:41:14.663Z,102305.38
2023-02-11T04:43:43.096Z,102307.05
2023-02-11T04:46:11.693Z,102308.83
2023-02-11T04:48:39.884Z,102305.94
2023-02-11T04:51:08.275Z,102302.33
2023-02-11T04:53:36.747Z,102292.77
2023-02-11T04:56:05.656Z,102290.46
2023-02-11T04:58:33.799Z,102287.64
2023-02-11T05:01:11.169Z,102284.98
2023-02-11T05:03:42.873Z,102282.68
2023-02-11T05:06:13.275Z,102284.02
2023-02-11T05:08:43.395Z,102277.08
2023-02-11T05:11:20.060Z,102274.28
2023-02-11T05:13:49.322Z,102267.98
2023-02-11T05:16:18.662Z,102268.90
2023-02-11T05:18:45.973Z,102260.64
2023-02-11T05:21:18.776Z,102252.96
2023-02-11T05:23:46.139Z,102246.55
2023-02-11T05:26:14.791Z,102247.09
2023-02-11T05:28:43.959Z,102241.67
2023-02-11T05:31:12.340Z,102239.75
2023-02-11T05:33:39.380Z,102238.80
2023-02-11T05:36:11.895Z,102230.48
2023-02-11T05:38:43.275Z,102226.37
2023-02-11T05:41:12.875Z,102227.68
2023-02-11T05:43:42.704Z,102226.75
2023-02-11T05:46:12.542Z,102222.70
2023-02-11T05:48:42.349Z,102218.30
2023-02-11T05:51:12.228Z,102218.20
2023-02-11T05:53:41.991Z,102213.76
2023-02-11T05:56:12.496Z,102201.05
2023-02-11T05:58:42.245Z,102202.96
2023-02-11T06:01:12.056Z,102210.00
2023-02-11T06:03:41.970Z,102211.44
2023-02-11T06:06:12.712Z,102216.20
2023-02-11T06:08:42.961Z,102219.27
2023-02-11T06:11:16.508Z,102221.20
2023-02-11T06:13:44.714Z,102215.88
2023-02-11T06:16:14.621Z,102223.94
2023-02-11T06:18:44.489Z,102225.23
2023-02-11T06:21:14.239Z,102237.56
2023-02-11T06:23:44.333Z,102236.52
2023-02-11T06:26:22.853Z,102233.99
2023-02-11T06:28:51.950Z,102233.48
2023-02-11T06:31:22.195Z,102235.05
2023-02-11T06:33:52.000Z,102239.69
2023-02-11T06:36:23.374Z,102242.80
2023-02-11T06:38:52.857Z,102236.90
2023-02-11T06:41:21.177Z,102230.05
2023-02-11T06:43:52.874Z,102234.73
2023-02-11T06:46:21.023Z,102229.64
2023-02-11T06:48:49.316Z,102220.58
2023-02-11T06:51:17.811Z,102218.98
2023-02-11T06:53:47.447Z,102226.00
2023-02-11T06:56:20.934Z,102224.41
2023-02-11T06:58:54.609Z,102219.52
2023-02-11T07:01:24.631Z,102214.32
2023-02-11T07:03:54.053Z,102215.39
2023-02-11T07:06:27.809Z,102215.61
2023-02-11T07:08:56.871Z,102223.20
2023-02-11T07:11:28.948Z,102224.59
2023-02-11T07:14:04.912Z,102223.68
2023-02-11T07:16:33.314Z,102216.60
2023-02-11T07:19:03.208Z,102216.48
2023-02-11T07:21:33.225Z,102214.52
2023-02-11T07:24:10.751Z,102202.05
2023-02-11T07:26:39.211Z,102196.71
2023-02-11T07:29:06.494Z,102194.73
2023-02-11T07:31:36.415Z,102191.89
2023-02-11T07:34:06.327Z,102194.80
2023-02-11T07:36:37.613Z,102198.75
2023-02-11T07:39:06.862Z,102191.33
2023-02-11T07:41:38.003Z,102187.67
2023-02-11T07:44:07.710Z,102182.35
2023-02-11T07:46:37.638Z,102183.15
2023-02-11T07:49:07.433Z,102177.88
2023-02-11T07:51:37.795Z,102176.55
2023-02-11T07:54:07.953Z,102174.05
2023-02-11T07:56:36.047Z,102178.40
2023-02-11T07:59:04.801Z,102189.23
2023-02-11T08:01:33.538Z,102190.02
2023-02-11T08:04:03.250Z,102190.48
2023-02-11T08:06:34.380Z,102189.69
2023-02-11T08:09:08.087Z,102194.05
2023-02-11T08:11:37.281Z,102195.83
2023-02-11T08:14:04.761Z,102187.93
2023-02-11T08:16:37.051Z,102189.53
2023-02-11T08:19:14.134Z,102199.74
2023-02-11T08:21:44.687Z,102206.39
2023-02-11T08:24:12.845Z,102220.88
2023-02-11T08:26:42.220Z,102226.52
2023-02-11T08:29:14.928Z,102237.89
2023-02-11T08:31:47.611Z,102229.16
2023-02-11T08:34:18.977Z,102229.77
2023-02-11T08:36:48.448Z,102233.66
2023-02-11T08:39:21.250Z,102233.14
2023-02-11T08:41:53.823Z,102238.30
2023-02-11T08:44:23.053Z,102242.32
2023-02-11T08:46:53.086Z,102237.52
2023-02-11T08:49:23.222Z,102241.73
2023-02-11T08:51:54.138Z,102238.10
2023-02-11T08:54:23.891Z,102240.02
2023-02-11T08:56:53.731Z,102236.27
2023-02-11T08:59:24.204Z,102221.79
2023-02-11T09:01:54.155Z,102206.74
2023-02-11T09:04:24.183Z,102201.39
2023-02-11T09:06:54.032Z,102193.65
2023-02-11T09:09:24.685Z,102191.90
2023-02-11T09:11:57.258Z,102198.90
2023-02-11T09:14:27.834Z,102199.23
2023-02-11T09:16:57.573Z,102198.16
2023-02-11T09:19:26.643Z,102203.33
2023-02-11T09:21:56.914Z,102206.92
2023-02-11T09:24:26.594Z,102212.44
2023-02-11T09:26:56.399Z,102216.02
2023-02-11T09:29:26.234Z,102214.44
2023-02-11T09:31:56.112Z,102222.14
2023-02-11T09:34:25.908Z,102232.27
2023-02-11T09:36:55.626Z,102237.91
2023-02-11T09:39:26.755Z,102224.84
2023-02-11T09:42:40.565Z,102219.09
2023-02-11T09:45:20.498Z,102232.30
2023-02-11T09:48:20.115Z,102237.56
2023-02-11T09:50:56.013Z,102234.78
2023-02-11T09:53:43.036Z,102243.89
2023-02-11T09:56:15.436Z,102249.17
2023-02-11T09:58:45.720Z,102250.64
2023-02-11T10:02:04.704Z,102257.66
2023-02-11T10:05:13.838Z,102266.08
2023-02-11T10:08:05.605Z,102271.64
2023-02-11T10:10:47.747Z,102273.04
2023-02-11T10:13:36.937Z,102271.89
2023-02-11T10:16:13.993Z,102266.77
2023-02-11T10:19:20.614Z,102271.28
2023-02-11T10:22:19.126Z,102277.61
2023-02-11T10:24:54.870Z,102272.56
2023-02-11T10:27:34.260Z,102271.45
2023-02-11T10:30:26.308Z,102264.49
2023-02-11T10:33:33.931Z,102264.87
2023-02-11T10:36:04.987Z,102273.89
2023-02-11T10:38:36.445Z,102279.84
2023-02-11T10:41:09.736Z,102275.23
2023-02-11T10:43:43.688Z,102272.48
2023-02-11T10:46:22.544Z,102273.80
2023-02-11T10:48:54.289Z,102268.66
2023-02-11T10:51:34.292Z,102257.91
2023-02-11T10:54:04.118Z,102249.23
2023-02-11T10:56:42.242Z,102244.02
2023-02-11T10:59:39.984Z,102243.23
2023-02-11T11:02:25.272Z,102258.59
2023-02-11T11:05:03.993Z,102264.99
2023-02-11T11:07:34.757Z,102261.73
2023-02-11T11:10:47.641Z,102251.88
2023-02-11T11:13:46.802Z,102235.27
2023-02-11T11:16:18.822Z,102228.54
2023-02-11T11:19:09.268Z,102229.88
2023-02-11T11:21:48.029Z,102230.89
2023-02-11T11:24:55.906Z,102235.76
2023-02-11T11:27:26.382Z,102235.61
2023-02-11T11:29:56.943Z,102232.29
2023-02-11T11:32:33.704Z,102229.76
2023-02-11T11:35:21.000Z,102229.75
2023-02-11T11:38:03.528Z,102233.27
2023-02-11T11:40:37.391Z,102235.77
2023-02-11T11:43:13.236Z,102244.73
2023-02-11T11:46:01.121Z,102244.74
2023-02-11T11:48:39.527Z,102251.84
2023-02-11T11:51:13.833Z,102248.33
2023-02-11T11:54:06.210Z,102250.40
2023-02-11T11:57:02.682Z,102248.60
2023-02-11T11:59:32.216Z,102255.20
2023-02-11T12:02:28.661Z,102252.71
2023-02-11T12:05:13.811Z,102241.77
2023-02-11T12:08:24.539Z,102236.48
2023-02-11T12:11:13.212Z,102236.80
2023-02-11T12:14:01.382Z,102238.87
2023-02-11T12:16:45.428Z,102240.69
2023-02-11T12:19:33.877Z,102242.80
2023-02-11T12:22:23.391Z,102243.52
2023-02-11T12:25:24.907Z,102238.73
2023-02-11T12:28:25.534Z,102235.74
2023-02-11T12:31:13.483Z,102226.74
2023-02-11T12:34:16.032Z,102228.45
2023-02-11T12:36:54.332Z,102236.27
2023-02-11T12:39:50.467Z,102233.44
2023-02-11T12:43:08.743Z,102226.89
2023-02-11T12:46:09.563Z,102229.27
2023-02-11T12:49:22.772Z,102231.39
2023-02-11T12:52:17.263Z,102218.50
2023-02-11T12:54:58.902Z,102222.42
2023-02-11T12:57:33.372Z,102220.08
2023-02-11T13:00:22.091Z,102222.72
2023-02-11T13:03:09.861Z,102219.88
2023-02-11T13:05:59.885Z,102225.21
2023-02-11T13:08:35.725Z,102224.45
2023-02-11T13:11:18.749Z,102229.23
2023-02-11T13:14:24.741Z,102230.08
2023-02-11T13:16:57.316Z,102239.88
2023-02-11T13:19:45.919Z,102243.45
2023-02-11T13:22:39.908Z,102240.64
2023-02-11T13:25:36.045Z,102238.65
2023-02-11T13:28:40.696Z,102237.55
2023-02-11T13:31:12.991Z,102249.38
2023-02-11T13:33:44.385Z,102260.13
2023-02-11T13:36:24.747Z,102264.73
2023-02-11T13:39:06.388Z,102270.48
2023-02-11T13:41:42.075Z,102278.13
2023-02-11T13:44:22.744Z,102280.27
2023-02-11T13:47:01.406Z,102272.73
2023-02-11T13:49:40.728Z,102272.26
2023-02-11T13:52:30.177Z,102272.27
2023-02-11T13:55:09.825Z,102272.36
2023-02-11T13:57:41.693Z,102280.54
2023-02-11T14:00:36.892Z,102274.36
2023-02-11T14:03:31.425Z,102276.48
2023-02-11T14:06:29.172Z,102286.41
2023-02-11T14:09:14.414Z,102284.19
2023-02-11T14:11:52.069Z,102288.80
2023-02-11T14:14:24.690Z,102289.50
2023-02-11T14:17:00.370Z,102287.77
2023-02-11T14:19:44.433Z,102290.63
2023-02-11T14:22:43.661Z,102293.71
2023-02-11T14:25:26.748Z,102298.30
2023-02-11T14:28:35.265Z,102295.03
2023-02-11T14:31:18.419Z,102296.64
2023-02-11T14:33:59.546Z,102291.66
2023-02-11T14:37:02.850Z,102293.15
2023-02-11T14:39:52.718Z,102292.58
2023-02-11T14:42:29.097Z,102289.20
2023-02-11T14:45:08.607Z,102289.64
2023-02-11T14:48:12.419Z,102290.21
2023-02-11T14:51:00.950Z,102290.02
2023-02-11T14:53:34.204Z,102294.74
2023-02-11T14:56:18.016Z,102300.30
2023-02-11T14:58:51.605Z,102299.58
2023-02-11T15:01:25.963Z,102306.20
2023-02-11T15:03:56.784Z,102313.92
2023-02-11T15:06:42.788Z,102309.70
2023-02-11T15:09:20.680Z,102309.74
2023-02-11T15:11:52.368Z,102309.03
2023-02-11T15:14:28.643Z,102313.48
2023-02-11T15:17:08.153Z,102318.66
2023-02-11T15:19:48.944Z,102316.33
2023-02-11T15:22:28.412Z,102321.15
2023-02-11T15:25:01.228Z,102323.66
2023-02-11T15:27:56.547Z,102331.17
2023-02-11T15:30:36.110Z,102329.66
2023-02-11T15:33:06.039Z,102329.63
2023-02-11T15:35:41.088Z,102340.44
2023-02-11T15:38:13.659Z,102339.34
2023-02-11T15:41:02.125Z,102345.20
2023-02-11T15:43:47.866Z,102351.50
2023-02-11T15:46:22.020Z,102356.10
2023-02-11T15:48:53.389Z,102360.48
2023-02-11T15:51:31.618Z,102351.36
2023-02-11T15:54:16.590Z,102359.60
2023-02-11T15:56:51.519Z,102363.74
2023-02-11T15:59:33.227Z,102364.97
2023-02-11T16:02:33.739Z,102359.08
2023-02-11T16:05:08.965Z,102356.41
2023-02-11T16:07:49.704Z,102353.66
2023-02-11T16:10:27.722Z,102346.55
2023-02-11T16:13:17.085Z,102356.12
2023-02-11T16:15:57.399Z,102362.34
2023-02-11T16:18:39.240Z,102358.40
2023-02-11T16:21:17.330Z,102357.89
2023-02-11T16:23:57.318Z,102363.96
2023-02-11T16:26:40.926Z,102375.84
2023-02-11T16:29:16.320Z,102386.35
2023-02-11T16:31:48.655Z,102385.60
2023-02-11T16:34:25.370Z,102381.23
2023-02-11T16:36:55.495Z,102367.43
2023-02-11T16:39:25.294Z,102371.73
2023-02-11T16:41:56.165Z,102373.43
2023-02-11T16:44:26.060Z,102380.27
2023-02-11T16:47:00.713Z,102388.15
2023-02-11T16:49:32.691Z,102392.58
2023-02-11T16:52:02.341Z,102392.23
2023-02-11T16:54:31.666Z,102394.16
2023-02-11T16:56:59.720Z,102393.14
2023-02-11T16:59:28.100Z,102386.45
2023-02-11T17:01:58.216Z,102398.55
2023-02-11T17:04:30.007Z,102411.83
2023-02-11T17:06:59.913Z,102412.51
2023-02-11T17:09:30.507Z,102422.92
2023-02-11T17:11:58.548Z,102427.45
2023-02-11T17:14:26.616Z,102437.13
2023-02-11T17:16:55.383Z,102432.04
2023-02-11T17:19:24.295Z,102421.54
2023-02-11T17:21:53.818Z,102427.18
2023-02-11T17:24:23.630Z,102430.41
2023-02-11T17:26:51.585Z,102436.21
2023-02-11T17:29:25.386Z,102451.17
2023-02-11T17:31:53.968Z,102447.20
2023-02-11T17:34:23.132Z,102442.29
2023-02-11T17:36:53.012Z,102442.91
2023-02-11T17:39:22.803Z,102444.28
2023-02-11T17:41:52.835Z,102453.77
2023-02-11T17:44:22.608Z,102466.50
2023-02-11T17:46:52.395Z,102476.59
2023-02-11T17:49:22.219Z,102479.19
2023-02-11T17:51:52.079Z,102484.08
2023-02-11T17:54:21.883Z,102481.20
2023-02-11T17:56:55.175Z,102478.95
2023-02-11T17:59:29.825Z,102479.56
2023-02-11T18:01:59.798Z,102482.58
2023-02-11T18:04:30.667Z,102490.71
2023-02-11T18:07:00.537Z,102490.02
2023-02-11T18:09:30.275Z,102496.02
2023-02-11T18:12:00.140Z,102497.31
2023-02-11T18:14:30.061Z,102498.65
2023-02-11T18:17:00.221Z,102500.59
2023-02-11T18:19:32.003Z,102513.38
2023-02-11T18:22:04.284Z,102512.39
2023-02-11T18:24:34.037Z,102515.36
2023-02-11T18:27:02.668Z,102512.69
2023-02-11T18:29:31.000Z,102515.71
2023-02-11T18:31:59.712Z,102527.73
2023-02-11T18:34:26.988Z,102532.34
2023-02-11T18:36:54.823Z,102533.14
2023-02-11T18:39:24.364Z,102536.70
2023-02-11T18:41:56.668Z,102536.44
2023-02-11T18:44:24.768Z,102540.95
2023-02-11T18:46:53.153Z,102543.23
2023-02-11T18:49:21.231Z,102553.35
2023-02-11T18:51:48.848Z,102562.73
2023-02-11T18:54:17.404Z,102565.46
2023-02-11T18:56:45.731Z,102570.41
2023-02-11T18:59:14.133Z,102573.36
2023-02-11T19:01:46.748Z,102572.92
2023-02-11T19:04:19.749Z,102579.55
2023-02-11T19:06:49.926Z,102577.66
2023-02-11T19:09:20.922Z,102576.39
2023-02-11T19:11:50.432Z,102583.17
2023-02-11T19:14:28.550Z,102586.71
2023-02-11T19:16:58.745Z,102589.52
2023-02-11T19:19:30.546Z,102594.14
2023-02-11T19:22:01.341Z,102595.23
2023-02-11T19:24:30.795Z,102597.05
2023-02-11T19:27:03.454Z,102596.91
2023-02-11T19:29:33.486Z,102600.48
2023-02-11T19:32:08.431Z,102605.91
2023-02-11T19:34:41.256Z,102614.56
2023-02-11T19:37:12.946Z,102617.95
2023-02-11T19:39:43.201Z,102622.27
2023-02-11T19:42:18.424Z,102616.48
2023-02-11T19:44:47.414Z,102614.45
2023-02-11T19:47:17.859Z,102614.55
2023-02-11T19:49:47.765Z,102615.48
2023-02-11T19:52:17.557Z,102611.45
2023-02-11T19:54:47.516Z,102612.85
2023-02-11T19:57:17.396Z,102614.16
2023-02-11T19:59:47.220Z,102615.84
2023-02-11T20:02:17.016Z,102610.39
2023-02-11T20:04:46.874Z,102619.34
2023-02-11T20:07:17.575Z,102622.35
2023-02-11T20:09:47.079Z,102621.83
2023-02-11T20:12:17.015Z,102627.16
2023-02-11T20:14:46.809Z,102629.59
2023-02-11T20:17:16.662Z,102633.15
2023-02-11T20:19:46.598Z,102637.35
2023-02-11T20:22:16.349Z,102640.90
2023-02-11T20:24:46.077Z,102638.73
2023-02-11T20:27:17.839Z,102637.00
2023-02-11T20:29:48.672Z,102642.30
2023-02-11T20:32:15.984Z,102642.89
2023-02-11T20:34:45.897Z,102645.02
2023-02-11T20:37:15.733Z,102648.94
2023-02-11T20:39:45.514Z,102650.11
2023-02-11T20:42:18.913Z,102652.42
2023-02-11T20:44:48.524Z,102662.38
2023-02-11T20:47:18.526Z,102669.92
2023-02-11T20:49:48.375Z,102669.86
2023-02-11T20:52:18.170Z,102673.96
2023-02-11T20:54:47.894Z,102673.59
2023-02-11T20:57:17.737Z,102668.25
2023-02-11T20:59:47.630Z,102674.17
2023-02-11T21:02:17.454Z,102681.05
2023-02-11T21:04:47.241Z,102680.97
2023-02-11T21:07:16.939Z,102680.52
2023-02-11T21:09:46.630Z,102677.53
2023-02-11T21:12:16.656Z,102677.69
2023-02-11T21:14:46.496Z,102685.44
2023-02-11T21:17:16.319Z,102688.39
2023-02-11T21:19:46.122Z,102695.36
2023-02-11T21:22:15.892Z,102703.40
2023-02-11T21:24:45.785Z,102706.28
2023-02-11T21:27:16.148Z,102716.81
2023-02-11T21:29:53.776Z,102720.88
2023-02-11T21:32:23.293Z,102721.38
2023-02-11T21:34:53.884Z,102730.18
2023-02-11T21:37:24.649Z,102731.28
2023-02-11T21:39:54.399Z,102734.23
2023-02-11T21:42:23.099Z,102746.63
2023-02-11T21:44:51.357Z,102749.81
2023-02-11T21:47:19.871Z,102747.48
2023-02-11T21:49:48.310Z,102751.85
2023-02-11T21:52:16.993Z,102752.84
2023-02-11T21:54:45.498Z,102755.19
2023-02-11T21:57:15.343Z,102755.73
2023-02-11T21:59:44.132Z,102760.36
2023-02-11T22:02:12.349Z,102761.99
2023-02-11T22:04:40.915Z,102765.94
2023-02-11T22:07:09.149Z,102770.01
2023-02-11T22:09:39.611Z,102767.65
2023-02-11T22:12:13.485Z,102775.04
2023-02-11T22:14:43.529Z,102776.48
2023-02-11T22:17:13.608Z,102777.29
2023-02-11T22:19:43.474Z,102783.46
2023-02-11T22:22:18.159Z,102787.27
2023-02-11T22:24:49.142Z,102788.73
2023-02-11T22:27:20.232Z,102791.60
2023-02-11T22:29:50.044Z,102796.09
2023-02-11T22:32:20.010Z,102803.26
2023-02-11T22:34:52.177Z,102805.64
2023-02-11T22:37:23.088Z,102813.08
2023-02-11T22:39:52.990Z,102818.65
2023-02-11T22:42:23.352Z,102821.72
2023-02-11T22:44:53.111Z,102825.88
2023-02-11T22:47:22.931Z,102827.01
2023-02-11T22:49:52.663Z,102833.89
2023-02-11T22:52:23.700Z,102836.23
2023-02-11T22:54:55.027Z,102834.48
2023-02-11T22:57:24.849Z,102835.55
2023-02-11T22:59:55.241Z,102843.38
2023-02-11T23:02:25.365Z,102846.23
2023-02-11T23:04:55.151Z,102840.45
2023-02-11T23:07:25.009Z,102840.54
2023-02-11T23:09:55.051Z,102841.56
2023-02-11T23:12:25.205Z,102840.85
2023-02-11T23:14:54.897Z,102842.98
2023-02-11T23:17:24.896Z,102840.86
2023-02-11T23:19:54.902Z,102847.59
2023-02-11T23:22:24.689Z,102855.13
2023-02-11T23:24:54.648Z,102856.34
2023-02-11T23:27:24.399Z,102861.67
2023-02-11T23:29:57.462Z,102860.22
2023-02-11T23:32:27.481Z,102861.31
2023-02-11T23:34:57.496Z,102858.59
2023-02-11T23:37:27.222Z,102862.09
2023-02-11T23:39:57.015Z,102861.39
2023-02-11T23:42:27.000Z,102863.54
2023-02-11T23:44:56.758Z,102866.33
2023-02-11T23:47:26.458Z,102866.60
2023-02-11T23:49:58.703Z,102872.01
2023-02-11T23:52:29.334Z,102869.96
2023-02-11T23:54:59.101Z,102874.88
2023-02-11T23:57:29.167Z,102875.72
2023-02-11T23:59:59.114Z,102878.06
